createdAt,value
2023-04-20T00:07:59.460Z,53.9
2023-04-20T00:27:11.900Z,55.4
2023-04-20T00:46:24.367Z,58.9
2023-04-20T01:05:34.248Z,61.8
2023-04-20T01:24:45.273Z,63.2
2023-04-20T01:43:55.326Z,61
2023-04-20T02:03:07.588Z,60.4
2023-04-20T02:22:16.548Z,60.9
2023-04-20T02:41:25.825Z,62.1
2023-04-20T03:00:36.488Z,63.8
2023-04-20T03:19:46.111Z,65.2
2023-04-20T03:38:56.962Z,66.8
2023-04-20T03:58:06.574Z,70.5
2023-04-20T04:17:14.776Z,73.1
2023-04-20T04:36:25.708Z,75
2023-04-20T04:55:35.809Z,76.6
2023-04-20T05:14:46.784Z,78.8
2023-04-20T05:33:57.980Z,78
2023-04-20T05:53:08.980Z,79
2023-04-20T06:12:19.703Z,83.1
2023-04-20T06:31:32.063Z,84.2
2023-04-20T06:50:46.528Z,81.9
2023-04-20T07:09:57.392Z,81.7
2023-04-20T07:29:09.541Z,79.4
2023-04-20T07:48:22.586Z,77.3
2023-04-20T08:07:37.145Z,73.9
2023-04-20T08:26:46.994Z,71.7
2023-04-20T08:46:00.086Z,72.8
2023-04-20T09:05:15.053Z,71.3
2023-04-20T09:24:24.455Z,74.8
2023-04-20T09:43:39.737Z,67
2023-04-20T10:02:54.133Z,62.4
2023-04-20T10:22:03.825Z,62.6
2023-04-20T10:41:12.479Z,63.5
2023-04-20T11:00:22.287Z,63.3
2023-04-20T11:19:37.538Z,62.8
2023-04-20T11:38:48.139Z,61.4
2023-04-20T11:58:03.403Z,59.1
2023-04-20T12:17:16.230Z,57.5
2023-04-20T12:36:29.506Z,55.5
2023-04-20T12:55:38.139Z,54.3
2023-04-20T13:14:49.623Z,52.4
2023-04-20T13:34:04.310Z,50.9
2023-04-20T13:53:14.556Z,51.9
2023-04-20T14:12:26.907Z,51.6
2023-04-20T14:31:41.684Z,50.7
2023-04-20T14:50:51.382Z,49.7
2023-04-20T15:10:05.370Z,49.7
2023-04-20T15:29:18.035Z,47.2
2023-04-20T15:48:29.305Z,47.6
2023-04-20T16:07:39.558Z,50.5
2023-04-20T16:26:45.952Z,57.8
2023-04-20T16:45:55.953Z,75.1
2023-04-20T17:05:05.313Z,77.6
2023-04-20T17:24:15.960Z,81.9
2023-04-20T17:43:26.837Z,81.1
2023-04-20T18:02:41.583Z,82.5
2023-04-20T18:21:52.115Z,80.8
2023-04-20T18:41:05.369Z,82.8
2023-04-20T19:00:16.544Z,81.9
2023-04-20T19:19:27.978Z,83.2
2023-04-20T19:38:40.051Z,82.8
2023-04-20T19:57:50.534Z,87.4
2023-04-20T20:17:06.643Z,91.7
2023-04-20T20:36:14.940Z,93.5
2023-04-20T20:55:26.332Z,93.2
2023-04-20T21:14:37.223Z,93.6
2023-04-20T21:33:49.481Z,99.3
2023-04-20T21:52:59.593Z,99.7
2023-04-20T22:12:10.976Z,98.3
2023-04-20T22:31:21.953Z,98.1
2023-04-20T22:50:33.937Z,100
2023-04-20T23:09:45.757Z,100
2023-04-20T23:28:56.702Z,100
2023-04-20T23:48:09.366Z,100
